Almo Heights, Kentucky
Current Conditions -  °F | °C
As of 1:15 AM on Friday 19 Dec 2014 (Local Time) from KCEY Reporting Station
Overcast Overcast  
Wind Chill: -1°   Ceiling: 4600
Heat Index:   Visibility: 10mi
Dew Point: -1°   Wind: 5mph
Humidity: 87%   Direction: 10°N
Pressure: 30.25"   Gusts: NA
Location:  36.7139°N, 88.3196°W
Report Text: KCEY 190715Z AUTO 01004KT 10SM OVC046 01/M01 A3025 RMK AO1
Loading
Personal Weather Stations






























Interactive Weather Map New forecast layout! Learn more

10-Day Weather Forecast

Advertisements
Track Severe Weather on mobile